Realtime data from ferrybox TransPaper


TransPaper. Data shown below have not been quality controlled.

Date Time
(UTC)
Region
(Nr)
Temp
(°C)
Salinity
(PSU)
Cphyl A
(µg/l)
Phyco
(µg/l)
OxyS
(proc)
Turb
(NTU)
2018-09-20 08:06:23 14 11.98 6.99 5.31 - - 1.47
2018-09-20 04:17:57 13 14.93 6.71 6.26 - - 1.42
2018-09-19 23:56:08 12 16.14 6.49 7.58 - - 1.43
2018-09-19 20:15:15 11 15.44 6.34 8.17 - - 1.43
2018-09-19 11:27:00 8 14.69 5.30 7.85 - - 1.45
2018-09-18 18:35:16 3 11.47 3.02 9.06 - - 1.57
2018-09-18 11:59:29 1 13.73 2.50 7.59 - - 1.49
2018-09-17 05:35:00 1 14.22 2.59 7.98 - - 1.43
2018-09-17 03:43:07 2 13.43 2.57 8.66 - - 1.26
2018-09-16 20:59:11 4 13.09 3.72 10.05 - - 1.33
2018-09-16 18:53:27 5 14.53 4.75 11.39 - - 1.32
2018-09-16 08:38:48 8 13.85 5.20 7.74 - - 1.30
2018-09-16 06:21:45 9 14.82 5.33 8.69 - - 1.30
2018-09-15 22:30:41 12 16.54 6.46 8.00 - - 1.26
2018-09-15 18:24:53 13 16.59 6.62 8.32 - - 1.26
2018-09-15 15:02:03 14 12.68 6.97 6.67 - - 1.27
2018-09-15 10:24:39 15 17.15 7.33 9.80 - - 1.24
2018-09-15 07:00:26 16 17.97 7.32 10.46 - - 1.24
2018-09-14 00:01:00 16 18.30 7.28 3.31 - - 2.92
2018-09-13 21:20:57 15 17.46 7.37 3.24 - - 2.92
2018-09-13 16:07:29 14 14.42 6.92 3.04 - - 2.97
2018-09-13 12:52:23 13 16.01 6.74 3.09 - - 3.01
2018-09-13 09:19:30 12 16.75 6.46 3.04 - - 3.08
2018-09-13 06:51:10 11 16.53 6.34 3.01 - - 3.07
2018-09-13 05:04:12 10 16.22 6.15 3.01 - - 3.07